sensor_id;sensor_type;location;lat;lon;timestamp;P1;durP1;ratioP1;P2;durP2;ratioP2
10471;SDS011;5283;48.876;8.962;2024-01-30T00:01:55;4.67;;;3.60;;
10471;SDS011;5283;48.876;8.962;2024-01-30T00:04:22;3.83;;;3.40;;
10471;SDS011;5283;48.876;8.962;2024-01-30T00:06:48;4.90;;;3.57;;
10471;SDS011;5283;48.876;8.962;2024-01-30T00:09:16;4.50;;;3.63;;
10471;SDS011;5283;48.876;8.962;2024-01-30T00:11:43;4.53;;;4.00;;
10471;SDS011;5283;48.876;8.962;2024-01-30T00:14:10;4.90;;;3.80;;
10471;SDS011;5283;48.876;8.962;2024-01-30T00:16:36;4.40;;;3.50;;
10471;SDS011;5283;48.876;8.962;2024-01-30T00:19:03;4.47;;;3.57;;
10471;SDS011;5283;48.876;8.962;2024-01-30T00:21:30;5.30;;;3.43;;
10471;SDS011;5283;48.876;8.962;2024-01-30T00:23:57;4.57;;;3.60;;
10471;SDS011;5283;48.876;8.962;2024-01-30T00:26:23;5.90;;;4.07;;
10471;SDS011;5283;48.876;8.962;2024-01-30T00:28:50;6.00;;;3.80;;
10471;SDS011;5283;48.876;8.962;2024-01-30T00:31:17;4.87;;;4.00;;
10471;SDS011;5283;48.876;8.962;2024-01-30T00:33:43;7.77;;;4.20;;
10471;SDS011;5283;48.876;8.962;2024-01-30T00:36:10;7.70;;;3.90;;
10471;SDS011;5283;48.876;8.962;2024-01-30T00:38:37;5.10;;;4.00;;
10471;SDS011;5283;48.876;8.962;2024-01-30T00:41:04;5.50;;;3.83;;
10471;SDS011;5283;48.876;8.962;2024-01-30T00:43:31;7.47;;;4.33;;
10471;SDS011;5283;48.876;8.962;2024-01-30T00:45:58;5.40;;;4.33;;
10471;SDS011;5283;48.876;8.962;2024-01-30T00:48:25;5.33;;;4.23;;
10471;SDS011;5283;48.876;8.962;2024-01-30T00:50:51;5.10;;;4.13;;
10471;SDS011;5283;48.876;8.962;2024-01-30T00:53:18;6.63;;;4.40;;
10471;SDS011;5283;48.876;8.962;2024-01-30T00:55:45;5.43;;;4.00;;
10471;SDS011;5283;48.876;8.962;2024-01-30T00:58:11;5.20;;;4.07;;
10471;SDS011;5283;48.876;8.962;2024-01-30T01:00:38;4.60;;;4.10;;
10471;SDS011;5283;48.876;8.962;2024-01-30T01:03:05;5.33;;;3.97;;
10471;SDS011;5283;48.876;8.962;2024-01-30T01:05:32;4.97;;;3.73;;
10471;SDS011;5283;48.876;8.962;2024-01-30T01:07:59;5.23;;;3.97;;
10471;SDS011;5283;48.876;8.962;2024-01-30T01:10:26;5.47;;;4.00;;
10471;SDS011;5283;48.876;8.962;2024-01-30T01:12:53;6.17;;;3.67;;
10471;SDS011;5283;48.876;8.962;2024-01-30T01:15:20;6.33;;;4.40;;
10471;SDS011;5283;48.876;8.962;2024-01-30T01:17:46;6.63;;;4.00;;
10471;SDS011;5283;48.876;8.962;2024-01-30T01:20:13;4.47;;;3.70;;
10471;SDS011;5283;48.876;8.962;2024-01-30T01:22:40;5.53;;;4.03;;
10471;SDS011;5283;48.876;8.962;2024-01-30T01:25:08;4.93;;;4.00;;
10471;SDS011;5283;48.876;8.962;2024-01-30T01:27:36;5.03;;;3.97;;
10471;SDS011;5283;48.876;8.962;2024-01-30T01:30:08;5.40;;;3.73;;
10471;SDS011;5283;48.876;8.962;2024-01-30T01:32:36;4.80;;;3.77;;
10471;SDS011;5283;48.876;8.962;2024-01-30T01:35:03;6.20;;;4.40;;
10471;SDS011;5283;48.876;8.962;2024-01-30T01:37:31;6.10;;;4.27;;
10471;SDS011;5283;48.876;8.962;2024-01-30T01:39:58;5.10;;;4.10;;
10471;SDS011;5283;48.876;8.962;2024-01-30T01:42:25;7.80;;;4.73;;
10471;SDS011;5283;48.876;8.962;2024-01-30T01:44:52;5.03;;;3.87;;
10471;SDS011;5283;48.876;8.962;2024-01-30T01:47:19;4.83;;;4.17;;
10471;SDS011;5283;48.876;8.962;2024-01-30T01:49:46;7.43;;;4.33;;
10471;SDS011;5283;48.876;8.962;2024-01-30T01:52:13;6.63;;;4.13;;
10471;SDS011;5283;48.876;8.962;2024-01-30T01:54:40;5.30;;;4.20;;
10471;SDS011;5283;48.876;8.962;2024-01-30T01:57:07;4.90;;;4.07;;
10471;SDS011;5283;48.876;8.962;2024-01-30T01:59:34;4.20;;;3.80;;
10471;SDS011;5283;48.876;8.962;2024-01-30T02:02:01;6.83;;;4.10;;
10471;SDS011;5283;48.876;8.962;2024-01-30T02:04:29;4.53;;;3.87;;
10471;SDS011;5283;48.876;8.962;2024-01-30T02:06:56;3.77;;;3.43;;
10471;SDS011;5283;48.876;8.962;2024-01-30T02:09:23;5.50;;;4.00;;
10471;SDS011;5283;48.876;8.962;2024-01-30T02:11:49;5.07;;;4.07;;
10471;SDS011;5283;48.876;8.962;2024-01-30T02:14:16;6.03;;;3.80;;
10471;SDS011;5283;48.876;8.962;2024-01-30T02:16:43;6.07;;;4.00;;
10471;SDS011;5283;48.876;8.962;2024-01-30T02:19:09;6.30;;;4.07;;
10471;SDS011;5283;48.876;8.962;2024-01-30T02:21:36;5.03;;;3.80;;
10471;SDS011;5283;48.876;8.962;2024-01-30T02:24:03;7.20;;;4.10;;
10471;SDS011;5283;48.876;8.962;2024-01-30T02:26:31;5.83;;;4.07;;
10471;SDS011;5283;48.876;8.962;2024-01-30T02:28:58;5.90;;;4.20;;
10471;SDS011;5283;48.876;8.962;2024-01-30T02:31:25;5.20;;;3.70;;
10471;SDS011;5283;48.876;8.962;2024-01-30T02:33:52;4.43;;;4.00;;
10471;SDS011;5283;48.876;8.962;2024-01-30T02:36:19;5.83;;;4.43;;
10471;SDS011;5283;48.876;8.962;2024-01-30T02:38:45;7.80;;;4.30;;
10471;SDS011;5283;48.876;8.962;2024-01-30T02:41:12;6.43;;;4.20;;
10471;SDS011;5283;48.876;8.962;2024-01-30T02:43:39;5.87;;;4.00;;
10471;SDS011;5283;48.876;8.962;2024-01-30T02:46:06;6.43;;;4.63;;
10471;SDS011;5283;48.876;8.962;2024-01-30T02:48:33;6.23;;;4.30;;
10471;SDS011;5283;48.876;8.962;2024-01-30T02:50:59;5.80;;;4.10;;
10471;SDS011;5283;48.876;8.962;2024-01-30T02:53:26;4.60;;;3.93;;
10471;SDS011;5283;48.876;8.962;2024-01-30T02:55:53;5.70;;;4.23;;
10471;SDS011;5283;48.876;8.962;2024-01-30T02:58:19;5.07;;;4.10;;
10471;SDS011;5283;48.876;8.962;2024-01-30T03:00:46;5.03;;;4.07;;
10471;SDS011;5283;48.876;8.962;2024-01-30T03:03:13;7.73;;;4.63;;
10471;SDS011;5283;48.876;8.962;2024-01-30T03:05:39;6.50;;;4.47;;
10471;SDS011;5283;48.876;8.962;2024-01-30T03:08:06;5.10;;;4.03;;
10471;SDS011;5283;48.876;8.962;2024-01-30T03:10:33;6.80;;;4.20;;
10471;SDS011;5283;48.876;8.962;2024-01-30T03:12:59;7.23;;;4.70;;
10471;SDS011;5283;48.876;8.962;2024-01-30T03:15:26;5.33;;;4.43;;
10471;SDS011;5283;48.876;8.962;2024-01-30T03:17:53;6.30;;;4.13;;
10471;SDS011;5283;48.876;8.962;2024-01-30T03:20:20;5.03;;;4.03;;
10471;SDS011;5283;48.876;8.962;2024-01-30T03:22:47;6.10;;;4.30;;
10471;SDS011;5283;48.876;8.962;2024-01-30T03:25:13;6.47;;;4.60;;
10471;SDS011;5283;48.876;8.962;2024-01-30T03:27:40;6.13;;;4.53;;
10471;SDS011;5283;48.876;8.962;2024-01-30T03:30:07;4.93;;;4.27;;
10471;SDS011;5283;48.876;8.962;2024-01-30T03:32:34;7.80;;;5.07;;
10471;SDS011;5283;48.876;8.962;2024-01-30T03:35:01;5.80;;;4.57;;
10471;SDS011;5283;48.876;8.962;2024-01-30T03:37:28;4.93;;;4.10;;
10471;SDS011;5283;48.876;8.962;2024-01-30T03:39:55;7.00;;;4.20;;
10471;SDS011;5283;48.876;8.962;2024-01-30T03:42:21;6.00;;;4.23;;
10471;SDS011;5283;48.876;8.962;2024-01-30T03:44:48;5.20;;;4.00;;
10471;SDS011;5283;48.876;8.962;2024-01-30T03:47:18;7.40;;;4.63;;
10471;SDS011;5283;48.876;8.962;2024-01-30T03:49:45;6.00;;;4.37;;
10471;SDS011;5283;48.876;8.962;2024-01-30T03:52:11;9.30;;;4.07;;
10471;SDS011;5283;48.876;8.962;2024-01-30T03:54:38;9.73;;;4.73;;
10471;SDS011;5283;48.876;8.962;2024-01-30T03:57:05;4.63;;;4.00;;
10471;SDS011;5283;48.876;8.962;2024-01-30T03:59:32;5.93;;;4.20;;
10471;SDS011;5283;48.876;8.962;2024-01-30T04:01:59;4.77;;;3.90;;
10471;SDS011;5283;48.876;8.962;2024-01-30T04:04:26;6.10;;;4.37;;
10471;SDS011;5283;48.876;8.962;2024-01-30T04:06:52;5.90;;;4.03;;
10471;SDS011;5283;48.876;8.962;2024-01-30T04:09:19;7.67;;;4.50;;
10471;SDS011;5283;48.876;8.962;2024-01-30T04:11:46;6.00;;;4.53;;
10471;SDS011;5283;48.876;8.962;2024-01-30T04:14:12;6.77;;;4.17;;
10471;SDS011;5283;48.876;8.962;2024-01-30T04:16:39;4.70;;;3.97;;
10471;SDS011;5283;48.876;8.962;2024-01-30T04:19:06;6.50;;;5.03;;
10471;SDS011;5283;48.876;8.962;2024-01-30T04:21:32;6.33;;;5.17;;
10471;SDS011;5283;48.876;8.962;2024-01-30T04:23:59;10.00;;;5.00;;
10471;SDS011;5283;48.876;8.962;2024-01-30T04:26:26;6.80;;;4.97;;
10471;SDS011;5283;48.876;8.962;2024-01-30T04:28:52;8.47;;;4.60;;
10471;SDS011;5283;48.876;8.962;2024-01-30T04:31:19;8.67;;;5.07;;
10471;SDS011;5283;48.876;8.962;2024-01-30T04:33:46;5.70;;;4.43;;
10471;SDS011;5283;48.876;8.962;2024-01-30T04:36:12;6.43;;;4.60;;
10471;SDS011;5283;48.876;8.962;2024-01-30T04:38:39;5.37;;;4.03;;
10471;SDS011;5283;48.876;8.962;2024-01-30T04:41:06;4.67;;;3.97;;
10471;SDS011;5283;48.876;8.962;2024-01-30T04:43:33;5.00;;;3.87;;
10471;SDS011;5283;48.876;8.962;2024-01-30T04:46:00;4.83;;;4.33;;
10471;SDS011;5283;48.876;8.962;2024-01-30T04:48:27;6.23;;;4.67;;
10471;SDS011;5283;48.876;8.962;2024-01-30T04:50:54;5.93;;;4.10;;
10471;SDS011;5283;48.876;8.962;2024-01-30T04:53:22;6.63;;;4.53;;
10471;SDS011;5283;48.876;8.962;2024-01-30T04:55:49;5.03;;;3.97;;
10471;SDS011;5283;48.876;8.962;2024-01-30T04:58:15;5.13;;;3.67;;
10471;SDS011;5283;48.876;8.962;2024-01-30T05:00:42;5.27;;;3.83;;
10471;SDS011;5283;48.876;8.962;2024-01-30T05:03:09;7.27;;;4.00;;
10471;SDS011;5283;48.876;8.962;2024-01-30T05:05:36;4.43;;;3.77;;
10471;SDS011;5283;48.876;8.962;2024-01-30T05:08:03;5.27;;;3.80;;
10471;SDS011;5283;48.876;8.962;2024-01-30T05:10:30;7.40;;;3.90;;
10471;SDS011;5283;48.876;8.962;2024-01-30T05:12:57;4.80;;;3.70;;
10471;SDS011;5283;48.876;8.962;2024-01-30T05:15:23;4.87;;;3.73;;
10471;SDS011;5283;48.876;8.962;2024-01-30T05:17:50;5.50;;;4.00;;
10471;SDS011;5283;48.876;8.962;2024-01-30T05:20:17;5.67;;;4.20;;
10471;SDS011;5283;48.876;8.962;2024-01-30T05:22:44;6.60;;;4.23;;
10471;SDS011;5283;48.876;8.962;2024-01-30T05:25:14;6.07;;;4.20;;
10471;SDS011;5283;48.876;8.962;2024-01-30T05:27:41;6.63;;;4.63;;
10471;SDS011;5283;48.876;8.962;2024-01-30T05:30:08;6.23;;;4.00;;
10471;SDS011;5283;48.876;8.962;2024-01-30T05:32:35;6.70;;;4.50;;
10471;SDS011;5283;48.876;8.962;2024-01-30T05:35:02;5.00;;;4.00;;
10471;SDS011;5283;48.876;8.962;2024-01-30T05:37:29;5.43;;;4.20;;
10471;SDS011;5283;48.876;8.962;2024-01-30T05:39:56;5.80;;;4.00;;
10471;SDS011;5283;48.876;8.962;2024-01-30T05:42:23;5.07;;;3.77;;
10471;SDS011;5283;48.876;8.962;2024-01-30T05:44:50;5.13;;;3.87;;
10471;SDS011;5283;48.876;8.962;2024-01-30T05:47:17;4.80;;;3.90;;
10471;SDS011;5283;48.876;8.962;2024-01-30T05:49:44;5.60;;;3.67;;
10471;SDS011;5283;48.876;8.962;2024-01-30T05:52:10;5.33;;;3.70;;
10471;SDS011;5283;48.876;8.962;2024-01-30T05:54:37;5.60;;;4.20;;
10471;SDS011;5283;48.876;8.962;2024-01-30T05:57:04;6.97;;;4.17;;
10471;SDS011;5283;48.876;8.962;2024-01-30T05:59:31;5.43;;;4.60;;
10471;SDS011;5283;48.876;8.962;2024-01-30T06:01:58;8.33;;;4.60;;
10471;SDS011;5283;48.876;8.962;2024-01-30T06:04:25;5.80;;;4.70;;
10471;SDS011;5283;48.876;8.962;2024-01-30T06:06:51;5.57;;;4.00;;
10471;SDS011;5283;48.876;8.962;2024-01-30T06:09:18;6.47;;;4.40;;
10471;SDS011;5283;48.876;8.962;2024-01-30T06:11:45;7.23;;;4.50;;
10471;SDS011;5283;48.876;8.962;2024-01-30T06:14:11;4.83;;;4.17;;
10471;SDS011;5283;48.876;8.962;2024-01-30T06:16:39;7.43;;;4.80;;
10471;SDS011;5283;48.876;8.962;2024-01-30T06:19:05;5.13;;;4.30;;
10471;SDS011;5283;48.876;8.962;2024-01-30T06:21:32;4.70;;;3.77;;
10471;SDS011;5283;48.876;8.962;2024-01-30T06:24:02;8.90;;;4.13;;
10471;SDS011;5283;48.876;8.962;2024-01-30T06:26:29;4.77;;;3.80;;
10471;SDS011;5283;48.876;8.962;2024-01-30T06:28:56;4.47;;;3.67;;
10471;SDS011;5283;48.876;8.962;2024-01-30T06:31:23;4.93;;;3.77;;
10471;SDS011;5283;48.876;8.962;2024-01-30T06:33:50;6.07;;;4.00;;
10471;SDS011;5283;48.876;8.962;2024-01-30T06:36:17;5.03;;;3.80;;
10471;SDS011;5283;48.876;8.962;2024-01-30T06:38:43;4.57;;;3.87;;
10471;SDS011;5283;48.876;8.962;2024-01-30T06:41:10;5.40;;;4.37;;
10471;SDS011;5283;48.876;8.962;2024-01-30T06:43:37;5.50;;;4.63;;
10471;SDS011;5283;48.876;8.962;2024-01-30T06:46:03;5.90;;;4.10;;
10471;SDS011;5283;48.876;8.962;2024-01-30T06:48:30;5.63;;;4.67;;
10471;SDS011;5283;48.876;8.962;2024-01-30T06:50:57;6.20;;;4.47;;
10471;SDS011;5283;48.876;8.962;2024-01-30T06:53:24;5.33;;;4.13;;
10471;SDS011;5283;48.876;8.962;2024-01-30T06:55:52;5.43;;;4.20;;
10471;SDS011;5283;48.876;8.962;2024-01-30T06:58:19;5.17;;;4.13;;
10471;SDS011;5283;48.876;8.962;2024-01-30T07:00:45;6.73;;;3.97;;
10471;SDS011;5283;48.876;8.962;2024-01-30T07:03:12;8.17;;;4.70;;
10471;SDS011;5283;48.876;8.962;2024-01-30T07:05:39;5.50;;;4.20;;
10471;SDS011;5283;48.876;8.962;2024-01-30T07:08:06;5.97;;;4.47;;
10471;SDS011;5283;48.876;8.962;2024-01-30T07:10:33;4.97;;;4.10;;
10471;SDS011;5283;48.876;8.962;2024-01-30T07:13:00;6.17;;;4.23;;
10471;SDS011;5283;48.876;8.962;2024-01-30T07:15:28;5.27;;;4.40;;
10471;SDS011;5283;48.876;8.962;2024-01-30T07:17:55;5.30;;;4.27;;
10471;SDS011;5283;48.876;8.962;2024-01-30T07:20:21;5.30;;;3.87;;
10471;SDS011;5283;48.876;8.962;2024-01-30T07:22:48;5.30;;;4.10;;
10471;SDS011;5283;48.876;8.962;2024-01-30T07:25:15;5.97;;;4.13;;
10471;SDS011;5283;48.876;8.962;2024-01-30T07:27:43;5.90;;;4.27;;
10471;SDS011;5283;48.876;8.962;2024-01-30T07:30:10;4.83;;;3.83;;
10471;SDS011;5283;48.876;8.962;2024-01-30T07:32:36;7.47;;;4.30;;
10471;SDS011;5283;48.876;8.962;2024-01-30T07:35:03;7.43;;;4.27;;
10471;SDS011;5283;48.876;8.962;2024-01-30T07:37:31;5.40;;;4.43;;
10471;SDS011;5283;48.876;8.962;2024-01-30T07:39:58;5.67;;;3.93;;
10471;SDS011;5283;48.876;8.962;2024-01-30T07:42:25;5.87;;;4.00;;
10471;SDS011;5283;48.876;8.962;2024-01-30T07:44:51;5.63;;;4.60;;
10471;SDS011;5283;48.876;8.962;2024-01-30T07:47:18;5.70;;;4.50;;
10471;SDS011;5283;48.876;8.962;2024-01-30T07:49:45;7.97;;;4.67;;
10471;SDS011;5283;48.876;8.962;2024-01-30T07:52:12;5.77;;;4.23;;
10471;SDS011;5283;48.876;8.962;2024-01-30T07:54:38;5.17;;;4.00;;
10471;SDS011;5283;48.876;8.962;2024-01-30T07:57:05;4.73;;;3.97;;
10471;SDS011;5283;48.876;8.962;2024-01-30T07:59:32;6.53;;;3.97;;
10471;SDS011;5283;48.876;8.962;2024-01-30T08:01:58;6.57;;;4.20;;
10471;SDS011;5283;48.876;8.962;2024-01-30T08:04:25;4.23;;;3.47;;
10471;SDS011;5283;48.876;8.962;2024-01-30T08:06:52;5.80;;;3.90;;
10471;SDS011;5283;48.876;8.962;2024-01-30T08:09:19;5.83;;;4.00;;
10471;SDS011;5283;48.876;8.962;2024-01-30T08:11:45;5.40;;;4.20;;
10471;SDS011;5283;48.876;8.962;2024-01-30T08:14:12;4.47;;;3.73;;
10471;SDS011;5283;48.876;8.962;2024-01-30T08:16:40;5.63;;;4.10;;
10471;SDS011;5283;48.876;8.962;2024-01-30T08:19:06;4.53;;;4.00;;
10471;SDS011;5283;48.876;8.962;2024-01-30T08:21:33;6.13;;;3.77;;
10471;SDS011;5283;48.876;8.962;2024-01-30T08:24:03;5.70;;;4.20;;
10471;SDS011;5283;48.876;8.962;2024-01-30T08:26:31;6.27;;;4.20;;
10471;SDS011;5283;48.876;8.962;2024-01-30T08:28:58;7.03;;;4.70;;
10471;SDS011;5283;48.876;8.962;2024-01-30T08:31:26;4.57;;;3.83;;
10471;SDS011;5283;48.876;8.962;2024-01-30T08:33:53;5.37;;;4.17;;
10471;SDS011;5283;48.876;8.962;2024-01-30T08:36:20;4.60;;;3.97;;
10471;SDS011;5283;48.876;8.962;2024-01-30T08:38:46;5.17;;;3.80;;
10471;SDS011;5283;48.876;8.962;2024-01-30T08:41:13;4.03;;;3.37;;
10471;SDS011;5283;48.876;8.962;2024-01-30T08:43:41;4.20;;;3.07;;
10471;SDS011;5283;48.876;8.962;2024-01-30T08:46:07;4.07;;;3.17;;
10471;SDS011;5283;48.876;8.962;2024-01-30T08:48:35;4.47;;;3.00;;
10471;SDS011;5283;48.876;8.962;2024-01-30T08:51:02;3.33;;;2.80;;
10471;SDS011;5283;48.876;8.962;2024-01-30T08:53:29;4.43;;;3.33;;
10471;SDS011;5283;48.876;8.962;2024-01-30T08:55:56;8.03;;;3.53;;
10471;SDS011;5283;48.876;8.962;2024-01-30T08:58:25;3.97;;;3.57;;
10471;SDS011;5283;48.876;8.962;2024-01-30T09:00:51;4.13;;;3.60;;
10471;SDS011;5283;48.876;8.962;2024-01-30T09:03:19;6.17;;;4.00;;
10471;SDS011;5283;48.876;8.962;2024-01-30T09:05:45;6.10;;;3.77;;
10471;SDS011;5283;48.876;8.962;2024-01-30T09:08:12;5.23;;;3.33;;
10471;SDS011;5283;48.876;8.962;2024-01-30T09:10:39;4.77;;;3.27;;
10471;SDS011;5283;48.876;8.962;2024-01-30T09:13:06;6.40;;;4.67;;
10471;SDS011;5283;48.876;8.962;2024-01-30T09:15:33;10.07;;;4.33;;
10471;SDS011;5283;48.876;8.962;2024-01-30T09:18:01;6.93;;;4.60;;
10471;SDS011;5283;48.876;8.962;2024-01-30T09:20:28;11.10;;;6.20;;
10471;SDS011;5283;48.876;8.962;2024-01-30T09:22:55;8.53;;;6.47;;
10471;SDS011;5283;48.876;8.962;2024-01-30T09:25:22;18.00;;;7.97;;
10471;SDS011;5283;48.876;8.962;2024-01-30T09:27:49;10.53;;;8.80;;
10471;SDS011;5283;48.876;8.962;2024-01-30T09:30:15;12.93;;;9.70;;
10471;SDS011;5283;48.876;8.962;2024-01-30T09:32:43;13.47;;;10.53;;
10471;SDS011;5283;48.876;8.962;2024-01-30T09:35:10;12.27;;;9.40;;
10471;SDS011;5283;48.876;8.962;2024-01-30T09:37:37;13.80;;;10.10;;
10471;SDS011;5283;48.876;8.962;2024-01-30T09:40:04;12.20;;;9.93;;
10471;SDS011;5283;48.876;8.962;2024-01-30T09:42:33;17.10;;;9.27;;
10471;SDS011;5283;48.876;8.962;2024-01-30T09:45:03;11.13;;;9.40;;
10471;SDS011;5283;48.876;8.962;2024-01-30T09:47:41;11.13;;;7.57;;
10471;SDS011;5283;48.876;8.962;2024-01-30T09:50:09;10.43;;;8.80;;
10471;SDS011;5283;48.876;8.962;2024-01-30T09:52:37;10.73;;;8.07;;
10471;SDS011;5283;48.876;8.962;2024-01-30T09:55:04;10.03;;;8.73;;
10471;SDS011;5283;48.876;8.962;2024-01-30T09:57:32;11.03;;;9.10;;
10471;SDS011;5283;48.876;8.962;2024-01-30T09:59:58;12.17;;;9.53;;
10471;SDS011;5283;48.876;8.962;2024-01-30T10:02:25;14.30;;;9.20;;
10471;SDS011;5283;48.876;8.962;2024-01-30T10:04:52;10.50;;;7.90;;
10471;SDS011;5283;48.876;8.962;2024-01-30T10:07:19;8.47;;;5.80;;
10471;SDS011;5283;48.876;8.962;2024-01-30T10:09:46;13.80;;;7.00;;
10471;SDS011;5283;48.876;8.962;2024-01-30T10:12:12;11.37;;;7.37;;
10471;SDS011;5283;48.876;8.962;2024-01-30T10:14:40;9.63;;;6.93;;
10471;SDS011;5283;48.876;8.962;2024-01-30T10:17:10;10.90;;;7.40;;
10471;SDS011;5283;48.876;8.962;2024-01-30T10:19:39;11.23;;;6.70;;
10471;SDS011;5283;48.876;8.962;2024-01-30T10:22:07;10.03;;;6.83;;
10471;SDS011;5283;48.876;8.962;2024-01-30T10:24:35;11.27;;;8.03;;
10471;SDS011;5283;48.876;8.962;2024-01-30T10:27:03;14.37;;;8.03;;
10471;SDS011;5283;48.876;8.962;2024-01-30T10:29:31;15.07;;;8.43;;
10471;SDS011;5283;48.876;8.962;2024-01-30T10:31:59;10.67;;;7.30;;
10471;SDS011;5283;48.876;8.962;2024-01-30T10:34:26;9.27;;;6.07;;
10471;SDS011;5283;48.876;8.962;2024-01-30T10:37:11;5.93;;;5.03;;
10471;SDS011;5283;48.876;8.962;2024-01-30T10:39:46;7.17;;;5.43;;
10471;SDS011;5283;48.876;8.962;2024-01-30T10:42:14;8.33;;;6.37;;
10471;SDS011;5283;48.876;8.962;2024-01-30T10:45:06;9.63;;;7.47;;
10471;SDS011;5283;48.876;8.962;2024-01-30T10:47:35;7.77;;;6.10;;
10471;SDS011;5283;48.876;8.962;2024-01-30T10:50:03;8.63;;;6.23;;
10471;SDS011;5283;48.876;8.962;2024-01-30T10:52:31;9.47;;;6.17;;
10471;SDS011;5283;48.876;8.962;2024-01-30T10:54:58;8.87;;;6.40;;
10471;SDS011;5283;48.876;8.962;2024-01-30T10:57:26;8.03;;;5.37;;
10471;SDS011;5283;48.876;8.962;2024-01-30T10:59:57;6.23;;;5.53;;
10471;SDS011;5283;48.876;8.962;2024-01-30T11:02:25;11.53;;;5.97;;
10471;SDS011;5283;48.876;8.962;2024-01-30T11:04:56;10.87;;;5.67;;
10471;SDS011;5283;48.876;8.962;2024-01-30T11:07:28;6.47;;;5.20;;
10471;SDS011;5283;48.876;8.962;2024-01-30T11:12:33;7.43;;;5.27;;
10471;SDS011;5283;48.876;8.962;2024-01-30T11:15:10;8.20;;;5.40;;
10471;SDS011;5283;48.876;8.962;2024-01-30T11:20:14;7.13;;;5.50;;
10471;SDS011;5283;48.876;8.962;2024-01-30T11:22:45;6.10;;;5.00;;
10471;SDS011;5283;48.876;8.962;2024-01-30T11:25:16;7.10;;;5.40;;
10471;SDS011;5283;48.876;8.962;2024-01-30T11:27:45;7.47;;;5.13;;
10471;SDS011;5283;48.876;8.962;2024-01-30T11:30:29;6.77;;;5.10;;
10471;SDS011;5283;48.876;8.962;2024-01-30T11:33:07;7.90;;;5.03;;
10471;SDS011;5283;48.876;8.962;2024-01-30T11:35:35;8.33;;;5.17;;
10471;SDS011;5283;48.876;8.962;2024-01-30T11:38:10;6.60;;;5.50;;
10471;SDS011;5283;48.876;8.962;2024-01-30T11:40:39;7.57;;;5.50;;
10471;SDS011;5283;48.876;8.962;2024-01-30T11:43:07;5.73;;;5.13;;
10471;SDS011;5283;48.876;8.962;2024-01-30T11:45:35;6.37;;;5.53;;
10471;SDS011;5283;48.876;8.962;2024-01-30T11:48:02;8.20;;;5.83;;
10471;SDS011;5283;48.876;8.962;2024-01-30T11:50:30;7.10;;;5.70;;
10471;SDS011;5283;48.876;8.962;2024-01-30T11:52:57;6.40;;;5.47;;
10471;SDS011;5283;48.876;8.962;2024-01-30T11:55:25;8.53;;;5.90;;
10471;SDS011;5283;48.876;8.962;2024-01-30T11:57:57;9.87;;;5.97;;
10471;SDS011;5283;48.876;8.962;2024-01-30T12:00:24;7.47;;;5.90;;
10471;SDS011;5283;48.876;8.962;2024-01-30T12:02:52;7.57;;;5.70;;
10471;SDS011;5283;48.876;8.962;2024-01-30T12:05:22;6.97;;;5.70;;
10471;SDS011;5283;48.876;8.962;2024-01-30T12:07:50;8.30;;;6.30;;
10471;SDS011;5283;48.876;8.962;2024-01-30T12:10:17;11.93;;;7.87;;
10471;SDS011;5283;48.876;8.962;2024-01-30T12:12:49;8.53;;;6.27;;
10471;SDS011;5283;48.876;8.962;2024-01-30T12:15:17;7.50;;;5.70;;
10471;SDS011;5283;48.876;8.962;2024-01-30T12:17:45;9.63;;;6.10;;
10471;SDS011;5283;48.876;8.962;2024-01-30T12:20:12;11.07;;;6.50;;
10471;SDS011;5283;48.876;8.962;2024-01-30T12:22:41;9.43;;;6.83;;
10471;SDS011;5283;48.876;8.962;2024-01-30T12:25:14;11.73;;;8.87;;
10471;SDS011;5283;48.876;8.962;2024-01-30T12:27:42;10.53;;;7.90;;
10471;SDS011;5283;48.876;8.962;2024-01-30T12:30:12;10.67;;;7.27;;
10471;SDS011;5283;48.876;8.962;2024-01-30T12:32:41;10.20;;;6.43;;
10471;SDS011;5283;48.876;8.962;2024-01-30T12:35:13;8.37;;;5.90;;
10471;SDS011;5283;48.876;8.962;2024-01-30T12:37:42;6.73;;;5.30;;
10471;SDS011;5283;48.876;8.962;2024-01-30T12:40:10;9.80;;;5.77;;
10471;SDS011;5283;48.876;8.962;2024-01-30T12:42:39;9.33;;;6.43;;
10471;SDS011;5283;48.876;8.962;2024-01-30T12:45:08;11.07;;;7.13;;
10471;SDS011;5283;48.876;8.962;2024-01-30T12:47:35;8.40;;;6.07;;
10471;SDS011;5283;48.876;8.962;2024-01-30T12:50:02;7.10;;;5.80;;
10471;SDS011;5283;48.876;8.962;2024-01-30T12:52:29;6.53;;;4.93;;
10471;SDS011;5283;48.876;8.962;2024-01-30T12:54:56;7.50;;;5.97;;
10471;SDS011;5283;48.876;8.962;2024-01-30T12:57:23;9.10;;;6.60;;
10471;SDS011;5283;48.876;8.962;2024-01-30T12:59:50;7.70;;;6.07;;
10471;SDS011;5283;48.876;8.962;2024-01-30T13:02:17;12.20;;;7.00;;
10471;SDS011;5283;48.876;8.962;2024-01-30T13:04:43;8.83;;;7.27;;
10471;SDS011;5283;48.876;8.962;2024-01-30T13:07:11;7.93;;;6.40;;
10471;SDS011;5283;48.876;8.962;2024-01-30T13:09:38;6.80;;;5.80;;
10471;SDS011;5283;48.876;8.962;2024-01-30T13:12:05;5.30;;;4.80;;
10471;SDS011;5283;48.876;8.962;2024-01-30T13:14:32;8.30;;;5.80;;
10471;SDS011;5283;48.876;8.962;2024-01-30T13:16:59;8.13;;;5.73;;
10471;SDS011;5283;48.876;8.962;2024-01-30T13:19:25;6.70;;;5.73;;
10471;SDS011;5283;48.876;8.962;2024-01-30T13:21:53;7.10;;;5.43;;
10471;SDS011;5283;48.876;8.962;2024-01-30T13:24:19;6.97;;;5.20;;
10471;SDS011;5283;48.876;8.962;2024-01-30T13:26:49;6.20;;;5.20;;
10471;SDS011;5283;48.876;8.962;2024-01-30T13:29:16;7.07;;;4.90;;
10471;SDS011;5283;48.876;8.962;2024-01-30T13:31:42;6.63;;;4.77;;
10471;SDS011;5283;48.876;8.962;2024-01-30T13:34:10;4.77;;;3.97;;
10471;SDS011;5283;48.876;8.962;2024-01-30T13:36:37;4.87;;;3.90;;
10471;SDS011;5283;48.876;8.962;2024-01-30T13:39:04;6.70;;;5.17;;
10471;SDS011;5283;48.876;8.962;2024-01-30T13:41:35;8.00;;;5.30;;
10471;SDS011;5283;48.876;8.962;2024-01-30T13:44:02;8.07;;;5.17;;
10471;SDS011;5283;48.876;8.962;2024-01-30T13:46:30;7.27;;;5.10;;
10471;SDS011;5283;48.876;8.962;2024-01-30T13:48:57;5.13;;;3.87;;
10471;SDS011;5283;48.876;8.962;2024-01-30T13:51:24;4.90;;;4.00;;
10471;SDS011;5283;48.876;8.962;2024-01-30T13:53:50;7.90;;;5.10;;
10471;SDS011;5283;48.876;8.962;2024-01-30T13:56:17;6.87;;;4.70;;
10471;SDS011;5283;48.876;8.962;2024-01-30T13:58:44;11.17;;;4.93;;
10471;SDS011;5283;48.876;8.962;2024-01-30T14:01:11;8.37;;;4.63;;
10471;SDS011;5283;48.876;8.962;2024-01-30T14:03:37;9.73;;;7.40;;
10471;SDS011;5283;48.876;8.962;2024-01-30T14:06:04;6.67;;;4.90;;
10471;SDS011;5283;48.876;8.962;2024-01-30T14:08:32;7.77;;;4.80;;
10471;SDS011;5283;48.876;8.962;2024-01-30T14:10:58;6.47;;;4.93;;
10471;SDS011;5283;48.876;8.962;2024-01-30T14:13:25;9.30;;;4.30;;
10471;SDS011;5283;48.876;8.962;2024-01-30T14:15:52;6.97;;;4.93;;
10471;SDS011;5283;48.876;8.962;2024-01-30T14:18:20;6.47;;;4.80;;
10471;SDS011;5283;48.876;8.962;2024-01-30T14:20:46;10.50;;;8.40;;
10471;SDS011;5283;48.876;8.962;2024-01-30T14:23:13;5.47;;;4.73;;
10471;SDS011;5283;48.876;8.962;2024-01-30T14:25:41;5.63;;;4.73;;
10471;SDS011;5283;48.876;8.962;2024-01-30T14:28:08;6.33;;;4.97;;
10471;SDS011;5283;48.876;8.962;2024-01-30T14:30:35;6.83;;;5.13;;
10471;SDS011;5283;48.876;8.962;2024-01-30T14:33:01;6.10;;;4.90;;
10471;SDS011;5283;48.876;8.962;2024-01-30T14:35:28;8.50;;;6.40;;
10471;SDS011;5283;48.876;8.962;2024-01-30T14:37:55;9.83;;;7.43;;
10471;SDS011;5283;48.876;8.962;2024-01-30T14:40:22;10.97;;;6.70;;
10471;SDS011;5283;48.876;8.962;2024-01-30T14:42:49;7.33;;;6.37;;
10471;SDS011;5283;48.876;8.962;2024-01-30T14:45:16;9.87;;;7.07;;
10471;SDS011;5283;48.876;8.962;2024-01-30T14:47:43;10.17;;;6.30;;
10471;SDS011;5283;48.876;8.962;2024-01-30T14:50:10;7.57;;;6.00;;
10471;SDS011;5283;48.876;8.962;2024-01-30T14:52:36;16.27;;;12.50;;
10471;SDS011;5283;48.876;8.962;2024-01-30T14:55:06;10.97;;;8.50;;
10471;SDS011;5283;48.876;8.962;2024-01-30T14:57:33;11.10;;;7.87;;
10471;SDS011;5283;48.876;8.962;2024-01-30T15:00:01;11.10;;;7.67;;
10471;SDS011;5283;48.876;8.962;2024-01-30T15:02:27;8.37;;;6.53;;
10471;SDS011;5283;48.876;8.962;2024-01-30T15:04:54;8.17;;;5.73;;
10471;SDS011;5283;48.876;8.962;2024-01-30T15:07:21;8.07;;;6.10;;